Time;durP1;ratioP1;P1;durP2;ratioP2;P2;SDS_P1;SDS_P2;PMS_P1;PMS_P2;Temp;Humidity;BMP_temperature;BMP_pressure;BME280_temperature;BME280_humidity;BME280_pressure;Samples;Min_cycle;Max_cycle;Signal;HPM_P1;HPM_P2
2023/01/06 00:02:37;;;;;;;1.90;0.90;;;19.50;54.60;;;;;;6329402;28;20040;-73
2023/01/06 00:05:38;;;;;;;1.02;0.70;;;19.50;54.60;;;;;;6345723;28;20032;-73
2023/01/06 00:08:39;;;;;;;1.48;0.90;;;19.50;54.60;;;;;;6345414;28;20020;-73
2023/01/06 00:11:40;;;;;;;1.27;0.80;;;19.50;54.50;;;;;;6332410;28;20020;-73
2023/01/06 00:14:41;;;;;;;1.73;1.00;;;19.50;54.60;;;;;;6320004;28;20110;-72
2023/01/06 00:17:43;;;;;;;1.48;0.80;;;19.50;54.60;;;;;;6329425;28;20106;-72
2023/01/06 00:20:44;;;;;;;1.65;0.90;;;19.50;54.50;;;;;;6357596;27;20028;-72
2023/01/06 00:23:44;;;;;;;1.27;0.70;;;19.50;54.50;;;;;;6319770;28;20021;-72
2023/01/06 00:26:45;;;;;;;1.45;0.80;;;19.50;54.50;;;;;;6319923;28;20028;-73
2023/01/06 00:29:48;;;;;;;2.22;0.93;;;19.50;54.50;;;;;;6343624;28;20366;-72
2023/01/06 00:32:50;;;;;;;1.15;0.85;;;19.50;54.50;;;;;;6331270;28;20488;-72
2023/01/06 00:35:51;;;;;;;1.55;0.90;;;19.50;54.50;;;;;;6342034;28;20504;-72
2023/01/06 00:38:51;;;;;;;1.75;0.80;;;19.50;54.50;;;;;;6334931;28;20020;-73
2023/01/06 00:42:04;;;;;;;1.48;0.82;;;19.50;54.50;;;;;;6333180;28;20507;-72
2023/01/06 00:45:05;;;;;;;0.98;0.70;;;19.50;55.20;;;;;;6319266;28;20012;-72
2023/01/06 00:48:06;;;;;;;2.20;0.90;;;19.50;54.50;;;;;;6327262;28;20494;-72
2023/01/06 00:51:07;;;;;;;1.60;0.85;;;19.50;54.50;;;;;;6344635;28;20027;-72
2023/01/06 00:54:09;;;;;;;1.65;0.75;;;19.50;54.50;;;;;;6343515;28;20029;-72
2023/01/06 00:57:10;;;;;;;1.35;0.70;;;19.50;54.50;;;;;;6343284;28;20043;-72
2023/01/06 01:00:11;;;;;;;1.60;0.90;;;19.50;54.50;;;;;;6343032;28;20502;-73
2023/01/06 01:03:11;;;;;;;1.40;0.75;;;19.50;54.60;;;;;;6336371;28;20036;-72
2023/01/06 01:06:12;;;;;;;1.05;0.50;;;19.50;54.60;;;;;;6319330;28;20063;-72
2023/01/06 01:09:20;;;;;;;1.25;0.80;;;19.50;54.60;;;;;;6334096;28;20547;-73
2023/01/06 01:12:21;;;;;;;1.60;0.80;;;19.50;54.60;;;;;;6324645;28;20097;-72
2023/01/06 01:15:21;;;;;;;1.63;0.70;;;19.50;54.50;;;;;;6308822;28;20147;-72
2023/01/06 01:18:22;;;;;;;1.27;0.70;;;19.50;54.60;;;;;;6323967;28;20035;-72
2023/01/06 01:21:23;;;;;;;1.63;0.90;;;19.50;54.60;;;;;;6342653;28;20050;-73
2023/01/06 01:24:23;;;;;;;1.63;0.75;;;19.50;54.50;;;;;;6318299;28;20123;-75
2023/01/06 01:27:24;;;;;;;1.23;0.80;;;19.50;54.60;;;;;;6327960;28;20031;-73
2023/01/06 01:30:25;;;;;;;1.40;0.70;;;19.50;54.60;;;;;;6338260;28;20031;-73
2023/01/06 01:33:27;;;;;;;1.10;0.70;;;19.50;54.60;;;;;;6321501;28;20496;-72
2023/01/06 01:36:29;;;;;;;1.40;0.70;;;19.50;54.60;;;;;;6344024;28;20027;-72
2023/01/06 01:39:29;;;;;;;1.77;0.90;;;19.50;54.60;;;;;;6330909;28;20058;-72
2023/01/06 01:42:30;;;;;;;1.00;0.73;;;19.50;54.60;;;;;;6340487;28;20023;-72
2023/01/06 01:45:31;;;;;;;1.80;0.77;;;19.50;54.60;;;;;;6318970;28;20016;-73
2023/01/06 01:48:34;;;;;;;0.95;0.57;;;19.50;54.60;;;;;;6322334;28;20024;-72
2023/01/06 01:51:39;;;;;;;0.98;0.50;;;19.50;54.60;;;;;;6342468;28;20555;-72
2023/01/06 01:54:40;;;;;;;;;;;19.50;54.50;;;;;;6343381;28;20468;-72
2023/01/06 01:58:08;;;;;;;1.23;0.77;;;19.50;54.60;;;;;;6335780;28;19923;-72
2023/01/06 02:01:10;;;;;;;0.52;0.50;;;19.50;54.60;;;;;;6343429;28;20023;-72
2023/01/06 02:04:13;;;;;;;1.48;0.70;;;19.50;54.60;;;;;;6342670;28;20040;-73
2023/01/06 02:07:13;;;;;;;0.70;0.60;;;19.50;54.60;;;;;;6341844;28;20058;-73
2023/01/06 02:10:22;;;;;;;1.30;0.60;;;19.50;55.30;;;;;;6341199;28;20467;-73
2023/01/06 02:13:23;;;;;;;1.00;0.50;;;19.50;54.60;;;;;;6318124;28;20031;-73
2023/01/06 02:16:30;;;;;;;0.77;0.57;;;19.50;54.60;;;;;;6341760;28;20361;-72
2023/01/06 02:19:56;;;;;;;0.80;0.50;;;19.50;54.60;;;;;;6342053;28;20429;-72
2023/01/06 02:23:18;;;;;;;1.42;1.00;;;19.50;54.60;;;;;;6336725;28;20024;-72
2023/01/06 02:26:52;;;;;;;0.68;0.50;;;19.50;54.60;;;;;;6331314;28;20085;-72
2023/01/06 02:30:26;;;;;;;0.80;0.60;;;19.50;54.60;;;;;;6336345;28;20023;-73
2023/01/06 02:34:02;;;;;;;0.80;0.50;;;19.50;54.60;;;;;;6334855;28;20020;-73
2023/01/06 02:37:11;;;;;;;1.05;0.70;;;19.50;54.70;;;;;;6320233;28;20055;-72
2023/01/06 02:40:56;;;;;;;1.13;0.70;;;19.50;54.60;;;;;;6347846;28;20415;-72
2023/01/06 02:44:18;;;;;;;1.48;0.82;;;19.50;54.60;;;;;;6335504;28;20423;-72
2023/01/06 02:47:29;;;;;;;1.08;0.70;;;19.50;54.60;;;;;;6321331;28;20031;-73
2023/01/06 03:27:22;;;;;;;1.50;0.60;;;19.40;54.50;;;;;;6335725;28;20480;-73
2023/01/06 03:30:34;;;;;;;1.33;0.57;;;19.40;54.50;;;;;;6311661;28;20512;-73
2023/01/06 03:33:48;;;;;;;0.60;0.50;;;19.50;54.60;;;;;;6320928;28;20399;-72
2023/01/06 03:37:00;;;;;;;0.47;0.47;;;19.40;54.50;;;;;;6320510;28;20486;-73
2023/01/06 03:40:25;;;;;;;0.90;0.40;;;19.40;54.50;;;;;;6301704;28;20020;-74
2023/01/06 03:43:53;;;;;;;0.95;0.57;;;19.40;54.40;;;;;;6320236;28;20035;-73
2023/01/06 03:47:15;;;;;;;1.55;0.60;;;19.40;54.50;;;;;;6301831;28;20028;-73
2023/01/06 03:50:31;;;;;;;0.90;0.60;;;19.50;54.50;;;;;;6301506;28;20535;-72
2023/01/06 03:53:45;;;;;;;0.77;0.60;;;19.40;54.40;;;;;;6320320;28;20073;-73
2023/01/06 03:56:54;;;;;;;1.10;0.60;;;19.50;54.60;;;;;;6301023;28;20034;-73
2023/01/06 04:00:10;;;;;;;1.02;0.57;;;19.40;54.40;;;;;;6320696;28;20074;-73
2023/01/06 04:03:15;;;;;;;0.65;0.50;;;19.40;54.50;;;;;;6319910;28;20047;-73
2023/01/06 04:06:18;;;;;;;0.40;0.30;;;19.40;54.40;;;;;;6301738;28;20028;-73
2023/01/06 04:09:20;;;;;;;0.45;0.32;;;19.40;54.40;;;;;;6320083;28;20140;-73
2023/01/06 04:12:37;;;;;;;1.20;0.60;;;19.40;54.50;;;;;;6293268;28;20094;-73
2023/01/06 04:15:41;;;;;;;0.85;0.65;;;19.50;54.50;;;;;;6306215;28;20032;-73
2023/01/06 04:18:43;;;;;;;0.75;0.40;;;19.50;54.50;;;;;;6319791;28;20085;-73
2023/01/06 04:21:51;;;;;;;0.70;0.50;;;19.40;54.50;;;;;;6319641;28;20422;-73
2023/01/06 04:24:55;;;;;;;2.08;0.68;;;19.40;54.40;;;;;;6300980;28;20116;-73
2023/01/06 04:27:59;;;;;;;0.80;0.60;;;19.40;54.40;;;;;;6301092;28;20439;-73
2023/01/06 04:31:03;;;;;;;1.35;0.60;;;19.40;54.40;;;;;;6301157;28;20024;-72
2023/01/06 04:34:06;;;;;;;0.70;0.38;;;19.40;54.40;;;;;;6319570;28;20473;-73
2023/01/06 04:37:09;;;;;;;0.73;0.40;;;19.40;54.40;;;;;;6313291;28;20502;-73
2023/01/06 04:40:11;;;;;;;0.50;0.47;;;19.40;54.40;;;;;;6322061;28;20652;-73
2023/01/06 04:43:17;;;;;;;0.63;0.40;;;19.40;54.40;;;;;;6318290;28;20036;-73
2023/01/06 04:46:22;;;;;;;0.82;0.47;;;19.40;54.40;;;;;;6306792;28;20016;-73
2023/01/06 04:49:25;;;;;;;;;;;19.40;54.40;;;;;;6319627;28;20020;-73
2023/01/06 04:52:28;;;;;;;0.85;0.50;;;19.40;54.40;;;;;;6316511;28;19912;-73
2023/01/06 04:55:33;;;;;;;0.65;0.52;;;19.40;54.40;;;;;;6300390;28;20020;-72
2023/01/06 04:58:39;;;;;;;0.63;0.30;;;19.40;54.40;;;;;;6318312;28;20048;-73
2023/01/06 05:01:42;;;;;;;0.75;0.60;;;19.40;55.10;;;;;;6305659;28;20408;-73
2023/01/06 05:05:10;;;;;;;0.90;0.50;;;19.40;54.40;;;;;;6325389;28;20035;-73
2023/01/06 05:08:54;;;;;;;0.65;0.50;;;19.40;54.40;;;;;;6301472;28;20503;-73
2023/01/06 05:12:17;;;;;;;1.02;0.55;;;19.40;54.40;;;;;;6298670;28;20028;-73
2023/01/06 05:29:19;;;;;;;0.68;0.30;;;19.40;54.40;;;;;;6186399;28;20411;-73
2023/01/06 05:46:01;;;;;;;1.20;0.60;;;19.40;54.40;;;;;;6166757;28;20420;-73
2023/01/06 06:24:12;;;;;;;1.40;0.30;;;19.40;54.40;;;;;;6296516;28;20044;-73
2023/01/06 06:27:55;;;;;;;0.90;0.40;;;19.40;54.40;;;;;;6298851;28;20430;-73
2023/01/06 06:31:07;;;;;;;1.08;0.40;;;19.40;54.40;;;;;;6316773;28;20052;-73
2023/01/06 06:34:12;;;;;;;0.98;0.50;;;19.40;54.40;;;;;;6290397;28;20035;-74
2023/01/06 06:37:13;;;;;;;0.30;0.27;;;19.40;54.40;;;;;;6305831;28;20038;-73
2023/01/06 06:40:15;;;;;;;0.85;0.47;;;19.40;54.40;;;;;;6340827;28;20261;-73
2023/01/06 06:43:18;;;;;;;1.40;0.40;;;19.40;54.40;;;;;;6308815;28;20477;-73
2023/01/06 06:46:20;;;;;;;2.95;0.50;;;19.40;54.40;;;;;;6273916;28;20028;-73
2023/01/06 06:49:23;;;;;;;0.88;0.45;;;19.40;54.40;;;;;;6295035;28;20025;-73
2023/01/06 06:52:25;;;;;;;0.77;0.43;;;19.40;54.40;;;;;;6316226;28;20094;-73
2023/01/06 06:56:16;;;;;;;0.73;0.40;;;19.40;54.40;;;;;;6298682;28;20111;-73
2023/01/06 06:59:57;;;;;;;;;;;;;;;;;;;;;
2023/01/06 07:06:59;;;;;;;1.08;0.32;;;19.40;54.40;;;;;;6300235;28;20036;-72
2023/01/06 07:10:35;;;;;;;0.63;0.40;;;19.40;54.50;;;;;;6319609;28;20033;-73
2023/01/06 07:13:36;;;;;;;0.47;0.38;;;19.40;54.50;;;;;;6295839;28;20024;-73
2023/01/06 07:16:38;;;;;;;0.80;0.43;;;19.40;54.50;;;;;;6322194;28;20370;-73
2023/01/06 07:19:38;;;;;;;1.05;0.40;;;19.40;54.60;;;;;;6323273;28;20024;-72
2023/01/06 07:22:39;;;;;;;0.57;0.40;;;19.40;54.50;;;;;;6312402;28;20082;-72
2023/01/06 07:25:40;;;;;;;1.92;0.60;;;19.40;54.60;;;;;;6337366;28;20373;-73
2023/01/06 07:28:41;;;;;;;0.32;0.22;;;19.50;54.80;;;;;;6323719;28;20074;-73
2023/01/06 07:31:42;;;;;;;4.68;0.40;;;19.50;54.70;;;;;;6305699;28;20358;-73
2023/01/06 07:34:43;;;;;;;2.70;0.50;;;19.50;54.30;;;;;;6348113;28;20012;-73
2023/01/06 07:37:44;;;;;;;2.10;0.40;;;19.60;54.30;;;;;;6348882;28;20019;-73
2023/01/06 07:40:45;;;;;;;2.63;0.60;;;19.60;54.40;;;;;;6348737;28;20023;-73
2023/01/06 07:43:46;;;;;;;1.33;0.45;;;19.60;54.20;;;;;;6348476;28;20440;-73
2023/01/06 07:46:47;;;;;;;2.53;0.68;;;19.60;54.30;;;;;;6348596;28;20073;-73
2023/01/06 07:49:48;;;;;;;1.90;0.60;;;19.60;54.20;;;;;;6306942;28;20020;-73
2023/01/06 07:52:48;;;;;;;3.75;0.38;;;19.60;54.00;;;;;;6310567;28;20057;-73
2023/01/06 07:55:52;;;;;;;1.10;0.50;;;19.60;54.00;;;;;;6348177;28;20027;-72
2023/01/06 07:58:53;;;;;;;2.83;0.50;;;19.60;54.00;;;;;;6307522;28;20388;-73
2023/01/06 08:01:54;;;;;;;4.15;0.50;;;19.60;54.30;;;;;;6292190;28;20077;-72
2023/01/06 08:04:54;;;;;;;1.92;0.50;;;19.60;54.40;;;;;;6322747;28;20024;-73
2023/01/06 08:07:56;;;;;;;1.27;0.50;;;19.50;54.40;;;;;;6322296;28;20443;-72
2023/01/06 08:10:57;;;;;;;0.90;0.63;;;19.60;54.60;;;;;;6316442;28;20489;-70
2023/01/06 08:13:58;;;;;;;6.80;0.50;;;19.50;54.50;;;;;;6325525;28;20065;-73
2023/01/06 08:16:58;;;;;;;1.92;0.40;;;19.60;54.60;;;;;;6305564;28;20032;-73
2023/01/06 08:19:59;;;;;;;0.47;0.38;;;19.60;54.40;;;;;;6304722;28;20051;-73
2023/01/06 08:23:01;;;;;;;1.52;0.40;;;19.60;54.30;;;;;;6306595;28;20051;-73
2023/01/06 08:26:05;;;;;;;1.13;0.60;;;19.60;54.30;;;;;;6329969;28;20380;-74
2023/01/06 08:29:07;;;;;;;2.08;0.40;;;19.60;54.40;;;;;;6337987;28;20365;-75
2023/01/06 08:32:08;;;;;;;9.88;0.47;;;19.60;54.50;;;;;;6303983;28;20035;-74
2023/01/06 08:35:08;;;;;;;4.80;0.60;;;19.50;54.50;;;;;;6303409;28;20024;-74
2023/01/06 08:38:09;;;;;;;3.63;0.50;;;19.60;54.70;;;;;;6303686;28;20465;-74
2023/01/06 08:41:10;;;;;;;1.25;0.50;;;19.60;54.70;;;;;;6304114;28;20028;-74
2023/01/06 08:44:11;;;;;;;0.57;0.32;;;19.50;54.70;;;;;;6321712;28;20035;-74
2023/01/06 08:47:12;;;;;;;1.10;0.50;;;19.50;54.70;;;;;;6303961;28;20579;-73
2023/01/06 08:50:12;;;;;;;3.65;0.50;;;19.50;54.70;;;;;;6295427;28;20596;-72
2023/01/06 08:53:13;;;;;;;3.47;0.98;;;19.50;54.70;;;;;;6321719;28;20425;-73
2023/01/06 08:56:20;;;;;;;0.52;0.38;;;19.50;54.70;;;;;;6319687;28;20028;-74
2023/01/06 08:59:21;;;;;;;1.30;0.40;;;19.50;54.70;;;;;;6286124;28;20052;-74
2023/01/06 09:02:21;;;;;;;1.10;0.40;;;19.50;54.70;;;;;;6294771;28;20036;-73
2023/01/06 09:05:22;;;;;;;0.80;0.43;;;19.50;54.80;;;;;;6303333;28;20020;-74
2023/01/06 09:08:23;;;;;;;0.70;0.40;;;19.50;54.80;;;;;;6321414;28;20044;-74
2023/01/06 09:11:25;;;;;;;2.63;0.60;;;19.50;54.80;;;;;;6326624;28;20106;-74
2023/01/06 09:14:25;;;;;;;1.77;0.50;;;19.50;54.80;;;;;;6340031;28;20048;-74
2023/01/06 09:17:26;;;;;;;0.60;0.40;;;19.50;54.80;;;;;;6321198;28;20102;-74
2023/01/06 09:20:28;;;;;;;0.95;0.50;;;19.50;54.80;;;;;;6294381;28;20032;-75
2023/01/06 09:23:29;;;;;;;1.30;0.50;;;19.50;54.80;;;;;;6313429;28;20610;-73
2023/01/06 09:26:29;;;;;;;2.78;0.73;;;19.50;54.80;;;;;;6320809;28;20032;-73
2023/01/06 09:29:30;;;;;;;1.08;0.40;;;19.50;54.80;;;;;;6321137;28;20373;-74
2023/01/06 09:32:31;;;;;;;0.85;0.43;;;19.50;54.80;;;;;;6321522;28;20023;-74
2023/01/06 09:35:32;;;;;;;1.25;0.55;;;19.50;54.80;;;;;;6316020;28;20019;-74
2023/01/06 09:38:33;;;;;;;1.95;0.60;;;19.50;54.80;;;;;;6328264;28;20028;-74
2023/01/06 09:41:40;;;;;;;1.13;0.57;;;19.50;54.80;;;;;;6327623;28;20104;-74
2023/01/06 09:44:45;;;;;;;6.28;0.52;;;19.50;54.90;;;;;;6341052;28;20020;-74
2023/01/06 09:47:53;;;;;;;1.95;0.57;;;19.50;54.90;;;;;;6302089;28;20062;-74
2023/01/06 09:50:58;;;;;;;2.13;0.52;;;19.50;54.90;;;;;;6305774;28;20023;-74
2023/01/06 09:54:11;;;;;;;3.10;0.50;;;19.50;54.90;;;;;;6296254;28;20025;-74
2023/01/06 09:57:20;;;;;;;1.80;0.60;;;19.50;55.00;;;;;;6313871;28;20174;-71
2023/01/06 10:00:34;;;;;;;1.38;0.60;;;19.40;54.90;;;;;;6320919;28;20028;-70
2023/01/06 10:03:35;;;;;;;4.05;0.70;;;19.50;55.00;;;;;;6296541;28;20099;-70
2023/01/06 10:06:44;;;;;;;5.88;0.70;;;19.50;55.00;;;;;;6296744;28;20109;-70
2023/01/06 10:09:57;;;;;;;0.63;0.32;;;19.50;55.30;;;;;;6302844;28;20024;-70
2023/01/06 10:13:15;;;;;;;1.17;0.50;;;19.50;55.00;;;;;;6302546;28;20066;-69
2023/01/06 10:16:24;;;;;;;0.80;0.52;;;19.50;55.00;;;;;;6321242;28;20077;-69
2023/01/06 10:19:37;;;;;;;1.48;0.60;;;19.50;55.00;;;;;;6302573;28;20024;-69
2023/01/06 10:22:46;;;;;;;0.52;0.43;;;19.50;55.00;;;;;;6319827;28;20048;-69
2023/01/06 10:25:53;;;;;;;1.30;0.60;;;19.50;55.00;;;;;;6324512;28;20353;-69
2023/01/06 10:29:05;;;;;;;2.03;0.90;;;19.40;54.90;;;;;;6327521;28;20061;-69
2023/01/06 10:32:15;;;;;;;7.25;1.58;;;19.40;54.80;;;;;;6328962;28;20028;-67
2023/01/06 10:35:21;;;;;;;7.53;1.58;;;19.40;54.30;;;;;;6320067;28;20082;-68
2023/01/06 10:38:29;;;;;;;8.60;1.98;;;19.40;53.80;;;;;;6320230;28;20638;-68
2023/01/06 10:41:51;;;;;;;8.45;2.50;;;19.30;53.20;;;;;;6330657;28;20042;-68
2023/01/06 10:44:52;;;;;;;13.40;2.88;;;19.40;53.10;;;;;;6327366;28;20027;-70
2023/01/06 10:47:53;;;;;;;5.82;2.78;;;19.30;52.90;;;;;;6305312;28;20077;-69
2023/01/06 10:50:55;;;;;;;10.10;2.95;;;19.40;52.90;;;;;;6324163;28;20403;-71
2023/01/06 10:53:59;;;;;;;10.80;3.03;;;19.40;52.60;;;;;;6328194;28;20020;-69
2023/01/06 10:57:03;;;;;;;5.07;2.10;;;19.30;52.30;;;;;;6333170;28;20020;-69
2023/01/06 11:00:22;;;;;;;9.52;2.08;;;19.40;52.80;;;;;;6348752;28;20544;-69
2023/01/06 11:03:23;;;;;;;8.98;2.70;;;19.40;53.00;;;;;;6329115;28;20392;-69
2023/01/06 11:06:27;;;;;;;8.82;3.00;;;19.30;53.20;;;;;;6324849;28;20039;-69
2023/01/06 11:09:44;;;;;;;11.02;3.35;;;19.40;53.40;;;;;;6306673;28;20028;-69
2023/01/06 11:12:45;;;;;;;12.48;3.50;;;19.40;53.60;;;;;;6306246;28;20020;-69
2023/01/06 11:15:46;;;;;;;13.25;4.15;;;19.40;53.60;;;;;;6324542;28;20103;-70
2023/01/06 11:19:03;;;;;;;10.93;4.10;;;19.40;53.70;;;;;;6324150;28;20024;-69
2023/01/06 11:22:05;;;;;;;14.05;4.03;;;19.40;53.70;;;;;;6327742;28;20038;-70
2023/01/06 11:25:32;;;;;;;14.35;4.63;;;19.40;53.90;;;;;;6324384;28;20503;-70
2023/01/06 11:28:33;;;;;;;20.88;5.43;;;19.40;53.80;;;;;;6301474;28;20096;-69
2023/01/06 11:31:34;;;;;;;18.48;5.28;;;19.40;53.70;;;;;;6303183;28;20103;-70
2023/01/06 11:34:35;;;;;;;24.88;5.82;;;19.50;53.90;;;;;;6323514;28;20028;-70
2023/01/06 11:37:40;;;;;;;17.70;4.53;;;19.50;54.00;;;;;;6305746;28;20123;-70
2023/01/06 11:40:44;;;;;;;19.65;4.30;;;19.50;53.90;;;;;;6305787;28;20845;-69
2023/01/06 11:43:45;;;;;;;17.98;5.45;;;19.50;54.10;;;;;;6275674;28;20124;-70
2023/01/06 11:46:54;;;;;;;15.50;4.82;;;19.40;54.00;;;;;;6279108;28;20025;-70
2023/01/06 11:49:59;;;;;;;18.23;4.97;;;19.40;54.00;;;;;;6313249;28;20016;-70
2023/01/06 11:53:13;;;;;;;19.63;5.70;;;19.40;54.00;;;;;;6306405;28;20020;-69
2023/01/06 11:56:14;;;;;;;14.75;4.85;;;19.40;54.10;;;;;;6323449;28;20278;-69
2023/01/06 11:59:15;;;;;;;18.85;5.13;;;19.40;54.20;;;;;;6272463;28;20039;-70
2023/01/06 12:02:33;;;;;;;13.32;4.65;;;19.40;54.10;;;;;;6286777;28;20027;-70
2023/01/06 12:05:41;;;;;;;13.75;4.65;;;19.50;54.10;;;;;;6311122;28;20092;-71
2023/01/06 12:08:54;;;;;;;13.15;4.78;;;19.50;54.20;;;;;;6297622;28;20531;-71
2023/01/06 12:11:58;;;;;;;9.57;3.53;;;19.50;54.50;;;;;;6280521;28;20032;-71
2023/01/06 12:14:59;;;;;;;11.57;4.20;;;19.50;54.40;;;;;;6298159;28;20025;-69
2023/01/06 12:18:20;;;;;;;14.43;4.70;;;19.50;54.40;;;;;;6298278;28;20033;-69
2023/01/06 12:21:29;;;;;;;14.23;4.13;;;19.50;54.50;;;;;;6297583;28;20016;-69
2023/01/06 12:24:32;;;;;;;11.45;4.50;;;19.50;54.40;;;;;;6298416;28;20037;-70
2023/01/06 12:28:00;;;;;;;14.65;3.83;;;19.40;54.30;;;;;;6297049;28;20020;-69
2023/01/06 12:31:23;;;;;;;12.13;4.32;;;19.50;54.50;;;;;;6297175;28;20020;-69
2023/01/06 12:34:28;;;;;;;11.73;3.83;;;19.40;54.40;;;;;;6289911;28;20074;-70
2023/01/06 12:37:32;;;;;;;;;;;19.50;54.60;;;;;;6302947;28;20034;-69
2023/01/06 12:40:47;;;;;;;13.73;3.95;;;19.40;54.50;;;;;;6279447;28;19936;-70
2023/01/06 12:43:59;;;;;;;12.05;4.15;;;19.50;54.60;;;;;;6297686;28;20083;-69
2023/01/06 12:47:37;;;;;;;10.07;4.07;;;19.40;54.60;;;;;;6296196;28;20048;-69
2023/01/06 12:50:50;;;;;;;14.30;4.32;;;19.40;54.60;;;;;;6296619;28;20024;-69
2023/01/06 12:54:03;;;;;;;8.27;3.30;;;19.50;54.80;;;;;;6304040;28;20126;-68
2023/01/06 12:57:16;;;;;;;9.07;3.80;;;19.40;54.70;;;;;;6304646;28;20028;-70
2023/01/06 13:00:33;;;;;;;9.02;3.30;;;19.40;54.70;;;;;;6282610;28;20021;-70
2023/01/06 13:03:57;;;;;;;10.25;3.80;;;19.40;54.70;;;;;;6280380;28;20109;-71
2023/01/06 13:07:13;;;;;;;10.68;3.35;;;19.40;54.70;;;;;;6297900;28;20442;-69
2023/01/06 13:10:41;;;;;;;9.65;3.38;;;19.40;54.70;;;;;;6280789;28;20016;-70
2023/01/06 13:14:18;;;;;;;8.68;3.35;;;19.40;54.70;;;;;;6297434;28;20081;-69
2023/01/06 13:17:35;;;;;;;9.93;3.20;;;19.40;54.70;;;;;;6298435;28;20032;-70
2023/01/06 13:21:01;;;;;;;10.13;3.83;;;19.50;54.80;;;;;;6302815;28;20028;-70
2023/01/06 13:24:23;;;;;;;10.15;3.75;;;19.40;54.80;;;;;;6336225;28;20048;-70
2023/01/06 13:27:37;;;;;;;11.00;4.10;;;19.40;54.80;;;;;;6323112;28;20032;-70
2023/01/06 13:30:44;;;;;;;11.05;4.28;;;19.40;54.70;;;;;;6296230;28;20031;-71
2023/01/06 13:34:07;;;;;;;16.05;5.18;;;19.40;54.70;;;;;;6314994;28;20020;-71
2023/01/06 13:37:13;;;;;;;17.52;5.80;;;19.50;54.80;;;;;;6304213;28;20024;-71
2023/01/06 13:40:16;;;;;;;21.67;6.00;;;19.50;54.80;;;;;;6322515;28;20055;-70
2023/01/06 13:43:24;;;;;;;19.88;6.57;;;19.40;54.80;;;;;;6304353;28;20028;-71
2023/01/06 13:46:27;;;;;;;17.55;5.95;;;19.40;54.70;;;;;;6304407;28;20016;-71
2023/01/06 13:49:29;;;;;;;20.83;6.57;;;19.50;54.80;;;;;;6303985;28;20100;-70
2023/01/06 13:52:31;;;;;;;27.23;7.25;;;19.50;54.90;;;;;;6304739;28;20035;-70
2023/01/06 13:55:37;;;;;;;21.63;6.65;;;19.40;54.80;;;;;;6304589;28;20036;-69
2023/01/06 13:58:49;;;;;;;23.65;7.38;;;19.40;54.80;;;;;;6323013;28;20119;-70
2023/01/06 14:01:51;;;;;;;19.77;6.60;;;19.40;54.80;;;;;;6322576;28;20093;-69
2023/01/06 14:04:52;;;;;;;20.80;7.22;;;19.40;54.80;;;;;;6322130;28;20031;-71
2023/01/06 14:07:59;;;;;;;19.98;6.35;;;19.40;54.80;;;;;;6304928;28;20021;-71
2023/01/06 14:11:18;;;;;;;19.60;7.10;;;19.40;54.80;;;;;;6322417;28;20024;-70
2023/01/06 14:14:28;;;;;;;19.98;7.18;;;19.40;54.80;;;;;;6321859;28;20496;-69
2023/01/06 14:17:39;;;;;;;16.35;6.25;;;19.40;54.80;;;;;;6303692;28;20477;-70
2023/01/06 14:20:40;;;;;;;19.73;6.55;;;19.40;54.80;;;;;;6322039;28;20115;-70
2023/01/06 14:24:05;;;;;;;17.17;6.88;;;19.40;54.80;;;;;;6321496;28;20048;-69
2023/01/06 14:27:07;;;;;;;20.60;7.07;;;19.40;54.90;;;;;;6343985;28;20503;-70
2023/01/06 14:30:28;;;;;;;17.80;6.95;;;19.40;54.90;;;;;;6341644;28;20023;-71
2023/01/06 14:33:36;;;;;;;19.95;6.60;;;19.40;54.90;;;;;;6322819;28;20031;-71
2023/01/06 14:36:38;;;;;;;17.80;6.85;;;19.40;54.90;;;;;;6324934;28;20036;-73
2023/01/06 14:39:44;;;;;;;17.23;6.53;;;19.40;54.90;;;;;;6331700;28;20031;-71
2023/01/06 14:42:45;;;;;;;18.42;5.93;;;19.40;54.90;;;;;;6331176;28;20050;-71
2023/01/06 14:45:48;;;;;;;16.40;5.97;;;19.40;54.90;;;;;;6338536;28;20028;-71
2023/01/06 14:48:53;;;;;;;15.63;6.00;;;19.40;54.90;;;;;;6304824;28;20043;-71
2023/01/06 14:51:57;;;;;;;15.23;6.10;;;19.40;54.90;;;;;;6307477;28;20521;-72
2023/01/06 14:55:00;;;;;;;17.63;5.60;;;19.40;55.10;;;;;;6300675;28;20025;-72
2023/01/06 14:58:01;;;;;;;16.80;5.97;;;19.40;54.80;;;;;;6330144;28;20019;-71
2023/01/06 15:01:03;;;;;;;17.55;6.18;;;19.50;55.00;;;;;;6348514;28;20043;-71
2023/01/06 15:04:05;;;;;;;16.60;6.32;;;19.50;55.10;;;;;;6348526;28;20036;-70
2023/01/06 15:07:17;;;;;;;17.70;6.55;;;19.40;55.00;;;;;;6322870;28;20077;-72
2023/01/06 15:10:20;;;;;;;20.27;6.00;;;19.40;55.00;;;;;;6304463;28;20245;-72
2023/01/06 15:13:29;;;;;;;20.35;6.03;;;19.50;55.90;;;;;;6323366;28;20031;-71
2023/01/06 15:16:39;;;;;;;16.83;5.57;;;19.50;55.00;;;;;;6335176;28;20446;-71
2023/01/06 15:19:43;;;;;;;17.88;6.28;;;19.50;55.10;;;;;;6348398;28;20035;-71
2023/01/06 15:22:48;;;;;;;16.35;6.55;;;19.50;55.10;;;;;;6318412;28;20405;-71
2023/01/06 15:25:51;;;;;;;16.30;5.30;;;19.50;55.10;;;;;;6301758;28;20412;-71
2023/01/06 15:29:05;;;;;;;15.43;5.32;;;19.40;55.10;;;;;;6279175;28;20046;-71
2023/01/06 15:32:11;;;;;;;16.45;5.70;;;19.50;55.20;;;;;;6271340;28;20112;-71
2023/01/06 15:35:18;;;;;;;17.17;6.00;;;19.40;55.10;;;;;;6273118;28;20382;-71
2023/01/06 15:38:21;;;;;;;21.08;6.25;;;19.40;55.20;;;;;;6318783;28;20036;-70
2023/01/06 15:41:31;;;;;;;16.33;5.88;;;19.40;55.30;;;;;;6315986;28;20081;-71
2023/01/06 15:44:34;;;;;;;20.27;5.80;;;19.50;55.30;;;;;;6278965;28;20048;-70
2023/01/06 15:47:45;;;;;;;15.45;6.20;;;19.40;55.30;;;;;;6288492;28;20504;-71
2023/01/06 15:50:45;;;;;;;15.50;5.82;;;19.40;55.30;;;;;;6292957;28;20027;-71
2023/01/06 15:53:52;;;;;;;17.17;6.20;;;19.50;55.40;;;;;;6297362;28;20028;-71
2023/01/06 15:56:53;;;;;;;14.73;5.35;;;19.50;55.30;;;;;;6270872;28;20036;-71
2023/01/06 15:59:58;;;;;;;15.15;5.88;;;19.50;55.30;;;;;;6271916;28;20048;-70
2023/01/06 16:02:59;;;;;;;;;;;19.50;55.30;;;;;;6297738;28;20033;-71
2023/01/06 16:06:11;;;;;;;17.90;5.07;;;19.50;55.30;;;;;;6278122;28;20398;-70
2023/01/06 16:09:18;;;;;;;16.45;5.53;;;19.50;55.30;;;;;;6271264;28;20017;-70
2023/01/06 16:12:19;;;;;;;14.15;5.00;;;19.50;55.30;;;;;;6271376;28;20051;-71
2023/01/06 16:15:59;;;;;;;11.93;4.97;;;19.50;55.30;;;;;;6296356;28;20024;-70
2023/01/06 16:19:20;;;;;;;11.77;4.43;;;19.40;55.30;;;;;;6198490;28;20035;-69
2023/01/06 16:22:30;;;;;;;11.60;4.53;;;19.40;55.20;;;;;;6318900;28;20526;-70
2023/01/06 16:25:33;;;;;;;12.27;4.40;;;19.40;55.20;;;;;;6346576;28;20024;-70
2023/01/06 16:28:35;;;;;;;13.93;4.60;;;19.50;55.30;;;;;;6327383;28;20039;-70
2023/01/06 16:31:40;;;;;;;12.98;5.03;;;19.40;55.30;;;;;;6304202;28;20031;-70
2023/01/06 16:34:49;;;;;;;8.80;3.87;;;19.50;55.30;;;;;;6303339;28;20024;-71
2023/01/06 16:37:51;;;;;;;14.60;4.45;;;19.50;55.30;;;;;;6321057;28;20136;-71
2023/01/06 16:40:51;;;;;;;9.98;4.65;;;19.50;55.40;;;;;;6321479;28;20020;-69
2023/01/06 16:43:52;;;;;;;15.48;4.53;;;19.40;55.30;;;;;;6303348;28;20024;-69
2023/01/06 16:46:53;;;;;;;9.70;4.20;;;19.50;55.30;;;;;;6320989;28;20019;-69
2023/01/06 16:49:54;;;;;;;8.35;3.67;;;19.40;55.30;;;;;;6321089;28;20385;-69
2023/01/06 16:53:10;;;;;;;9.65;3.70;;;19.40;55.30;;;;;;6294074;28;20112;-70
2023/01/06 16:56:22;;;;;;;9.95;3.65;;;19.40;55.40;;;;;;6293870;28;20040;-70
2023/01/06 16:59:24;;;;;;;9.50;3.63;;;19.40;55.30;;;;;;6301739;28;20545;-69
2023/01/06 17:02:24;;;;;;;8.15;3.40;;;19.40;55.30;;;;;;6319775;28;20016;-69
2023/01/06 17:05:28;;;;;;;11.10;3.53;;;19.50;55.50;;;;;;6320398;28;20024;-70
2023/01/06 17:08:33;;;;;;;8.15;3.17;;;19.50;55.50;;;;;;6314228;28;20508;-70
2023/01/06 17:11:36;;;;;;;;;;;19.50;55.50;;;;;;6334229;28;20525;-70
2023/01/06 17:14:37;;;;;;;8.77;3.55;;;19.50;55.50;;;;;;6318505;28;20330;-71
2023/01/06 17:17:38;;;;;;;18.27;3.45;;;19.50;55.60;;;;;;6299564;28;20035;-70
2023/01/06 17:20:39;;;;;;;12.23;3.38;;;19.50;55.60;;;;;;6317216;28;20111;-71
2023/01/06 17:24:04;;;;;;;12.60;3.38;;;19.50;55.60;;;;;;6299116;28;20051;-70
2023/01/06 17:27:19;;;;;;;11.43;3.00;;;19.50;55.60;;;;;;6317921;28;20028;-70
2023/01/06 17:30:20;;;;;;;10.13;3.05;;;19.50;55.60;;;;;;6316837;28;20447;-69
2023/01/06 17:33:21;;;;;;;10.20;3.58;;;19.50;55.60;;;;;;6317663;28;20039;-70
2023/01/06 17:36:24;;;;;;;8.90;3.10;;;19.50;55.60;;;;;;6317992;28;20027;-69
2023/01/06 17:39:28;;;;;;;10.00;3.22;;;19.40;55.50;;;;;;6317221;28;20035;-69
2023/01/06 17:42:34;;;;;;;10.03;3.30;;;19.50;55.60;;;;;;6317745;28;20043;-71
2023/01/06 17:45:36;;;;;;;9.85;3.25;;;19.40;55.50;;;;;;6299571;28;20028;-70
2023/01/06 17:48:37;;;;;;;8.80;3.28;;;19.50;55.60;;;;;;6327165;28;20027;-70
2023/01/06 17:51:38;;;;;;;6.00;2.22;;;19.50;55.60;;;;;;6318717;28;20020;-70
2023/01/06 17:57:58;;;;;;;5.80;2.50;;;19.50;56.30;;;;;;6317162;28;20040;-70
2023/01/06 18:01:00;;;;;;;6.70;3.08;;;19.40;55.50;;;;;;6314737;28;20039;-72